sensor_id;sensor_type;location;lat;lon;timestamp;pressure;altitude;pressure_sealevel;temperature;humidity
78671;BME280;68277;52.724;6.516;2023-07-31T00:00:50;100846.09;;;15.31;99.76
78671;BME280;68277;52.724;6.516;2023-07-31T00:03:19;100824.13;;;15.24;100.00
78671;BME280;68277;52.724;6.516;2023-07-31T00:05:45;100853.03;;;15.35;99.72
78671;BME280;68277;52.724;6.516;2023-07-31T00:08:10;100854.91;;;15.33;99.25
78671;BME280;68277;52.724;6.516;2023-07-31T00:10:36;100826.28;;;15.16;99.15
78671;BME280;68277;52.724;6.516;2023-07-31T00:13:01;100770.81;;;14.82;99.85
78671;BME280;68277;52.724;6.516;2023-07-31T00:15:27;100795.22;;;14.93;99.58
78671;BME280;68277;52.724;6.516;2023-07-31T00:17:52;100834.28;;;15.16;100.00
78671;BME280;68277;52.724;6.516;2023-07-31T00:20:18;100821.97;;;15.12;100.00
78671;BME280;68277;52.724;6.516;2023-07-31T00:22:44;100822.72;;;15.16;99.81
78671;BME280;68277;52.724;6.516;2023-07-31T00:25:09;100819.16;;;15.17;100.00
78671;BME280;68277;52.724;6.516;2023-07-31T00:27:35;100839.69;;;15.35;100.00
78671;BME280;68277;52.724;6.516;2023-07-31T00:30:00;100809.66;;;15.10;100.00
78671;BME280;68277;52.724;6.516;2023-07-31T00:32:26;100786.00;;;15.02;100.00
78671;BME280;68277;52.724;6.516;2023-07-31T00:34:52;100808.13;;;15.04;100.00
78671;BME280;68277;52.724;6.516;2023-07-31T00:37:18;100806.44;;;15.01;100.00
78671;BME280;68277;52.724;6.516;2023-07-31T00:39:47;100821.31;;;15.07;100.00
78671;BME280;68277;52.724;6.516;2023-07-31T00:42:13;100813.53;;;15.02;100.00
78671;BME280;68277;52.724;6.516;2023-07-31T00:44:38;100813.38;;;15.05;100.00
78671;BME280;68277;52.724;6.516;2023-07-31T00:47:04;100792.50;;;14.95;100.00
78671;BME280;68277;52.724;6.516;2023-07-31T00:49:30;100790.72;;;14.95;100.00
78671;BME280;68277;52.724;6.516;2023-07-31T00:51:56;100804.84;;;14.97;100.00
78671;BME280;68277;52.724;6.516;2023-07-31T00:54:24;100794.28;;;14.94;100.00
78671;BME280;68277;52.724;6.516;2023-07-31T00:56:50;100798.88;;;14.91;100.00
78671;BME280;68277;52.724;6.516;2023-07-31T00:59:21;100777.88;;;14.83;100.00
78671;BME280;68277;52.724;6.516;2023-07-31T01:01:47;100820.44;;;15.06;100.00
78671;BME280;68277;52.724;6.516;2023-07-31T01:04:13;100749.75;;;14.76;100.00
78671;BME280;68277;52.724;6.516;2023-07-31T01:06:51;100796.69;;;15.00;100.00
78671;BME280;68277;52.724;6.516;2023-07-31T01:12:16;100781.03;;;14.93;100.00
78671;BME280;68277;52.724;6.516;2023-07-31T01:15:10;100796.50;;;15.05;100.00
78671;BME280;68277;52.724;6.516;2023-07-31T01:17:37;100786.00;;;15.02;100.00
78671;BME280;68277;52.724;6.516;2023-07-31T01:20:05;100766.97;;;14.89;100.00
78671;BME280;68277;52.724;6.516;2023-07-31T01:28:39;100785.00;;;15.04;100.00
78671;BME280;68277;52.724;6.516;2023-07-31T01:31:02;100751.28;;;14.82;100.00
78671;BME280;68277;52.724;6.516;2023-07-31T01:33:31;100762.59;;;14.88;100.00
78671;BME280;68277;52.724;6.516;2023-07-31T01:35:56;100787.66;;;15.04;100.00
78671;BME280;68277;52.724;6.516;2023-07-31T01:38:22;100757.09;;;14.91;100.00
78671;BME280;68277;52.724;6.516;2023-07-31T01:40:52;100783.13;;;15.06;100.00
78671;BME280;68277;52.724;6.516;2023-07-31T01:43:19;100770.72;;;15.05;100.00
78671;BME280;68277;52.724;6.516;2023-07-31T01:45:44;100764.47;;;15.06;100.00
78671;BME280;68277;52.724;6.516;2023-07-31T01:48:10;100721.25;;;14.78;100.00
78671;BME280;68277;52.724;6.516;2023-07-31T01:50:35;100745.53;;;14.92;100.00
78671;BME280;68277;52.724;6.516;2023-07-31T01:53:01;100763.41;;;15.11;100.00
78671;BME280;68277;52.724;6.516;2023-07-31T01:55:26;100700.19;;;14.72;100.00
78671;BME280;68277;52.724;6.516;2023-07-31T01:57:53;100707.13;;;14.76;100.00
78671;BME280;68277;52.724;6.516;2023-07-31T02:00:19;100715.66;;;14.84;100.00
78671;BME280;68277;52.724;6.516;2023-07-31T02:02:45;100694.06;;;14.70;100.00
78671;BME280;68277;52.724;6.516;2023-07-31T02:05:11;100717.41;;;14.85;100.00
78671;BME280;68277;52.724;6.516;2023-07-31T02:07:36;100713.88;;;14.85;100.00
78671;BME280;68277;52.724;6.516;2023-07-31T02:10:05;100641.19;;;14.39;100.00
78671;BME280;68277;52.724;6.516;2023-07-31T02:12:37;100649.53;;;14.52;100.00
78671;BME280;68277;52.724;6.516;2023-07-31T02:15:03;100732.59;;;15.03;100.00
78671;BME280;68277;52.724;6.516;2023-07-31T02:17:29;100740.22;;;15.13;100.00
78671;BME280;68277;52.724;6.516;2023-07-31T02:19:55;100655.16;;;14.66;100.00
78671;BME280;68277;52.724;6.516;2023-07-31T02:22:20;100679.50;;;14.79;100.00
78671;BME280;68277;52.724;6.516;2023-07-31T02:24:46;100689.56;;;14.92;100.00
78671;BME280;68277;52.724;6.516;2023-07-31T02:27:11;100699.94;;;14.98;100.00
78671;BME280;68277;52.724;6.516;2023-07-31T02:29:37;100689.28;;;14.98;100.00
78671;BME280;68277;52.724;6.516;2023-07-31T02:32:03;100674.50;;;14.91;100.00
78671;BME280;68277;52.724;6.516;2023-07-31T02:34:29;100728.03;;;15.27;100.00
78671;BME280;68277;52.724;6.516;2023-07-31T02:36:54;100688.91;;;15.07;100.00
78671;BME280;68277;52.724;6.516;2023-07-31T02:39:20;100687.91;;;15.10;100.00
78671;BME280;68277;52.724;6.516;2023-07-31T02:41:46;100663.50;;;14.99;100.00
78671;BME280;68277;52.724;6.516;2023-07-31T02:44:13;100664.25;;;15.02;100.00
78671;BME280;68277;52.724;6.516;2023-07-31T02:46:40;100706.41;;;15.33;100.00
78671;BME280;68277;52.724;6.516;2023-07-31T02:49:05;100642.13;;;15.00;100.00
78671;BME280;68277;52.724;6.516;2023-07-31T02:51:31;100656.72;;;15.12;100.00
78671;BME280;68277;52.724;6.516;2023-07-31T02:53:56;100702.72;;;15.37;100.00
78671;BME280;68277;52.724;6.516;2023-07-31T02:56:22;100635.88;;;15.01;100.00
78671;BME280;68277;52.724;6.516;2023-07-31T02:58:48;100596.72;;;14.83;100.00
78671;BME280;68277;52.724;6.516;2023-07-31T03:01:13;100630.41;;;15.04;100.00
78671;BME280;68277;52.724;6.516;2023-07-31T03:03:41;100686.63;;;15.39;100.00
78671;BME280;68277;52.724;6.516;2023-07-31T03:06:07;100646.00;;;15.14;100.00
78671;BME280;68277;52.724;6.516;2023-07-31T03:08:32;100668.50;;;15.27;100.00
78671;BME280;68277;52.724;6.516;2023-07-31T03:10:57;100638.72;;;15.17;100.00
78671;BME280;68277;52.724;6.516;2023-07-31T03:13:23;100632.47;;;15.18;100.00
78671;BME280;68277;52.724;6.516;2023-07-31T03:15:50;100660.38;;;15.30;100.00
78671;BME280;68277;52.724;6.516;2023-07-31T03:18:16;100649.03;;;15.25;100.00
78671;BME280;68277;52.724;6.516;2023-07-31T03:20:42;100672.63;;;15.34;100.00
78671;BME280;68277;52.724;6.516;2023-07-31T03:23:09;100663.91;;;15.30;100.00
78671;BME280;68277;52.724;6.516;2023-07-31T03:25:34;100665.56;;;15.33;100.00
78671;BME280;68277;52.724;6.516;2023-07-31T03:28:00;100664.72;;;15.32;100.00
78671;BME280;68277;52.724;6.516;2023-07-31T03:30:25;100638.72;;;15.17;100.00
78671;BME280;68277;52.724;6.516;2023-07-31T03:32:51;100636.91;;;15.18;100.00
78671;BME280;68277;52.724;6.516;2023-07-31T03:35:16;100632.38;;;15.20;100.00
78671;BME280;68277;52.724;6.516;2023-07-31T03:37:42;100669.53;;;15.43;100.00
78671;BME280;68277;52.724;6.516;2023-07-31T03:40:08;100656.63;;;15.34;100.00
78671;BME280;68277;52.724;6.516;2023-07-31T03:42:34;100657.28;;;15.39;100.00
78671;BME280;68277;52.724;6.516;2023-07-31T03:44:59;100630.59;;;15.20;100.00
78671;BME280;68277;52.724;6.516;2023-07-31T03:47:26;100677.03;;;15.55;100.00
78671;BME280;68277;52.724;6.516;2023-07-31T03:49:53;100670.03;;;15.52;100.00
78671;BME280;68277;52.724;6.516;2023-07-31T03:52:18;100645.63;;;15.41;100.00
78671;BME280;68277;52.724;6.516;2023-07-31T03:54:44;100646.72;;;15.37;100.00
78671;BME280;68277;52.724;6.516;2023-07-31T03:57:10;100636.09;;;15.36;100.00
78671;BME280;68277;52.724;6.516;2023-07-31T03:59:36;100694.38;;;15.65;100.00
78671;BME280;68277;52.724;6.516;2023-07-31T04:02:04;100659.53;;;15.49;100.00
78671;BME280;68277;52.724;6.516;2023-07-31T04:04:29;100639.28;;;15.44;100.00
78671;BME280;68277;52.724;6.516;2023-07-31T04:06:55;100640.06;;;15.47;100.00
78671;BME280;68277;52.724;6.516;2023-07-31T04:09:20;100646.91;;;15.53;100.00
78671;BME280;68277;52.724;6.516;2023-07-31T04:11:46;100661.69;;;15.60;100.00
78671;BME280;68277;52.724;6.516;2023-07-31T04:14:11;100671.09;;;15.68;100.00
78671;BME280;68277;52.724;6.516;2023-07-31T04:16:37;100627.66;;;15.46;100.00
78671;BME280;68277;52.724;6.516;2023-07-31T04:19:03;100625.84;;;15.47;100.00
78671;BME280;68277;52.724;6.516;2023-07-31T04:21:29;100644.97;;;15.56;100.00
78671;BME280;68277;52.724;6.516;2023-07-31T04:23:55;100642.31;;;15.56;100.00
78671;BME280;68277;52.724;6.516;2023-07-31T04:26:21;100651.88;;;15.60;100.00
78671;BME280;68277;52.724;6.516;2023-07-31T04:28:47;100630.91;;;15.53;100.00
78671;BME280;68277;52.724;6.516;2023-07-31T04:31:12;100639.22;;;15.65;100.00
78671;BME280;68277;52.724;6.516;2023-07-31T04:33:38;100654.91;;;15.71;100.00
78671;BME280;68277;52.724;6.516;2023-07-31T04:36:04;100658.97;;;15.80;100.00
78671;BME280;68277;52.724;6.516;2023-07-31T04:38:30;100674.00;;;15.83;100.00
78671;BME280;68277;52.724;6.516;2023-07-31T04:40:55;100602.50;;;15.52;100.00
78671;BME280;68277;52.724;6.516;2023-07-31T04:43:21;100633.78;;;15.67;100.00
78671;BME280;68277;52.724;6.516;2023-07-31T04:45:46;100653.44;;;15.85;100.00
78671;BME280;68277;52.724;6.516;2023-07-31T04:48:15;100620.66;;;15.62;100.00
78671;BME280;68277;52.724;6.516;2023-07-31T04:50:41;100635.09;;;15.77;100.00
78671;BME280;68277;52.724;6.516;2023-07-31T04:53:06;100619.38;;;15.71;100.00
78671;BME280;68277;52.724;6.516;2023-07-31T04:55:32;100631.56;;;15.77;100.00
78671;BME280;68277;52.724;6.516;2023-07-31T04:57:58;100601.13;;;15.62;100.00
78671;BME280;68277;52.724;6.516;2023-07-31T05:00:24;100615.84;;;15.70;100.00
78671;BME280;68277;52.724;6.516;2023-07-31T05:02:49;100626.13;;;15.78;100.00
78671;BME280;68277;52.724;6.516;2023-07-31T05:05:15;100638.00;;;15.91;100.00
78671;BME280;68277;52.724;6.516;2023-07-31T05:07:40;100613.75;;;15.77;100.00
78671;BME280;68277;52.724;6.516;2023-07-31T05:10:06;100631.91;;;15.88;100.00
78671;BME280;68277;52.724;6.516;2023-07-31T05:12:32;100615.41;;;15.80;100.00
78671;BME280;68277;52.724;6.516;2023-07-31T05:14:57;100609.94;;;15.83;100.00
78671;BME280;68277;52.724;6.516;2023-07-31T05:17:23;100616.06;;;15.85;100.00
78671;BME280;68277;52.724;6.516;2023-07-31T05:19:48;100601.84;;;15.84;100.00
78671;BME280;68277;52.724;6.516;2023-07-31T05:22:14;100590.66;;;15.76;100.00
78671;BME280;68277;52.724;6.516;2023-07-31T05:24:40;100598.22;;;15.85;100.00
78671;BME280;68277;52.724;6.516;2023-07-31T05:27:06;100585.41;;;15.74;100.00
78671;BME280;68277;52.724;6.516;2023-07-31T05:29:31;100629.53;;;16.00;100.00
78671;BME280;68277;52.724;6.516;2023-07-31T05:31:58;100607.06;;;15.87;100.00
78671;BME280;68277;52.724;6.516;2023-07-31T05:34:24;100574.81;;;15.73;100.00
78671;BME280;68277;52.724;6.516;2023-07-31T05:36:50;100641.56;;;16.09;100.00
78671;BME280;68277;52.724;6.516;2023-07-31T05:39:15;100563.50;;;15.68;100.00
78671;BME280;68277;52.724;6.516;2023-07-31T05:41:41;100605.97;;;15.91;100.00
78671;BME280;68277;52.724;6.516;2023-07-31T05:44:06;100593.75;;;15.86;100.00
78671;BME280;68277;52.724;6.516;2023-07-31T05:46:32;100620.75;;;15.98;100.00
78671;BME280;68277;52.724;6.516;2023-07-31T05:48:58;100604.88;;;15.95;100.00
78671;BME280;68277;52.724;6.516;2023-07-31T05:51:26;100586.13;;;15.78;100.00
78671;BME280;68277;52.724;6.516;2023-07-31T05:53:52;100621.94;;;16.10;100.00
78671;BME280;68277;52.724;6.516;2023-07-31T05:56:17;100630.84;;;16.10;100.00
78671;BME280;68277;52.724;6.516;2023-07-31T05:58:43;100630.88;;;16.09;100.00
78671;BME280;68277;52.724;6.516;2023-07-31T06:01:09;100616.94;;;16.04;100.00
78671;BME280;68277;52.724;6.516;2023-07-31T06:03:37;100583.03;;;15.87;100.00
78671;BME280;68277;52.724;6.516;2023-07-31T06:06:27;100616.38;;;16.14;100.00
78671;BME280;68277;52.724;6.516;2023-07-31T06:08:54;100569.09;;;15.81;100.00
78671;BME280;68277;52.724;6.516;2023-07-31T06:11:21;100564.78;;;15.78;100.00
78671;BME280;68277;52.724;6.516;2023-07-31T06:13:48;100610.41;;;16.09;100.00
78671;BME280;68277;52.724;6.516;2023-07-31T06:16:15;100617.16;;;16.16;100.00
78671;BME280;68277;52.724;6.516;2023-07-31T06:18:41;100610.41;;;16.09;100.00
78671;BME280;68277;52.724;6.516;2023-07-31T06:21:07;100569.75;;;15.86;100.00
78671;BME280;68277;52.724;6.516;2023-07-31T06:23:33;100555.19;;;15.74;100.00
78671;BME280;68277;52.724;6.516;2023-07-31T06:25:58;100589.63;;;15.97;100.00
78671;BME280;68277;52.724;6.516;2023-07-31T06:28:28;100562.09;;;15.78;100.00
78671;BME280;68277;52.724;6.516;2023-07-31T06:30:54;100585.31;;;15.95;100.00
78671;BME280;68277;52.724;6.516;2023-07-31T06:33:20;100594.53;;;16.06;100.00
78671;BME280;68277;52.724;6.516;2023-07-31T06:35:45;100612.28;;;16.07;100.00
78671;BME280;68277;52.724;6.516;2023-07-31T06:38:11;100568.16;;;15.82;100.00
78671;BME280;68277;52.724;6.516;2023-07-31T06:40:36;100602.69;;;16.03;100.00
78671;BME280;68277;52.724;6.516;2023-07-31T06:43:02;100585.31;;;15.95;100.00
78671;BME280;68277;52.724;6.516;2023-07-31T06:45:37;100570.53;;;15.88;100.00
78671;BME280;68277;52.724;6.516;2023-07-31T06:48:05;100555.97;;;15.76;100.00
78671;BME280;68277;52.724;6.516;2023-07-31T06:50:33;100597.19;;;16.06;100.00
78671;BME280;68277;52.724;6.516;2023-07-31T06:52:59;100553.97;;;15.81;100.00
78671;BME280;68277;52.724;6.516;2023-07-31T06:55:26;100591.00;;;16.06;100.00
78671;BME280;68277;52.724;6.516;2023-07-31T06:57:53;100564.81;;;15.95;100.00
78671;BME280;68277;52.724;6.516;2023-07-31T07:00:20;100562.47;;;15.89;100.00
78671;BME280;68277;52.724;6.516;2023-07-31T07:02:46;100532.13;;;15.73;100.00
78671;BME280;68277;52.724;6.516;2023-07-31T07:05:15;100581.91;;;16.10;100.00
78671;BME280;68277;52.724;6.516;2023-07-31T07:07:41;100549.59;;;15.97;100.00
78671;BME280;68277;52.724;6.516;2023-07-31T07:10:07;100538.78;;;16.00;100.00
78671;BME280;68277;52.724;6.516;2023-07-31T07:12:33;100514.84;;;15.99;100.00
78671;BME280;68277;52.724;6.516;2023-07-31T07:14:59;100523.25;;;16.08;100.00
78671;BME280;68277;52.724;6.516;2023-07-31T07:17:29;100546.03;;;16.32;100.00
78671;BME280;68277;52.724;6.516;2023-07-31T07:19:58;100513.03;;;16.16;100.00
78671;BME280;68277;52.724;6.516;2023-07-31T07:22:27;100534.25;;;16.19;100.00
78671;BME280;68277;52.724;6.516;2023-07-31T07:24:53;100517.50;;;16.16;100.00
78671;BME280;68277;52.724;6.516;2023-07-31T07:27:18;100488.94;;;16.01;100.00
78671;BME280;68277;52.724;6.516;2023-07-31T07:29:45;100547.69;;;16.35;100.00
78671;BME280;68277;52.724;6.516;2023-07-31T07:32:11;100525.22;;;16.22;100.00
78671;BME280;68277;52.724;6.516;2023-07-31T07:34:37;100530.34;;;16.26;100.00
78671;BME280;68277;52.724;6.516;2023-07-31T07:37:03;100532.06;;;16.27;100.00
78671;BME280;68277;52.724;6.516;2023-07-31T07:39:28;100537.38;;;16.27;100.00
78671;BME280;68277;52.724;6.516;2023-07-31T07:41:54;100514.38;;;16.08;100.00
78671;BME280;68277;52.724;6.516;2023-07-31T07:44:19;100484.75;;;15.95;100.00
78671;BME280;68277;52.724;6.516;2023-07-31T07:46:45;100491.84;;;15.96;100.00
78671;BME280;68277;52.724;6.516;2023-07-31T07:49:10;100537.63;;;16.23;100.00
78671;BME280;68277;52.724;6.516;2023-07-31T07:51:36;100522.56;;;16.22;100.00
78671;BME280;68277;52.724;6.516;2023-07-31T07:54:02;100517.47;;;16.17;100.00
78671;BME280;68277;52.724;6.516;2023-07-31T07:56:27;100475.81;;;15.96;100.00
78671;BME280;68277;52.724;6.516;2023-07-31T07:58:54;100506.00;;;16.15;100.00
78671;BME280;68277;52.724;6.516;2023-07-31T08:01:20;100496.25;;;16.14;100.00
78671;BME280;68277;52.724;6.516;2023-07-31T08:03:47;100497.13;;;16.15;100.00
78671;BME280;68277;52.724;6.516;2023-07-31T08:06:12;100498.38;;;16.25;100.00
78671;BME280;68277;52.724;6.516;2023-07-31T08:08:38;100500.00;;;16.27;100.00
78671;BME280;68277;52.724;6.516;2023-07-31T08:11:06;100469.69;;;16.11;100.00
78671;BME280;68277;52.724;6.516;2023-07-31T08:13:32;100519.22;;;16.53;100.00
78671;BME280;68277;52.724;6.516;2023-07-31T08:15:58;100421.34;;;16.00;100.00
78671;BME280;68277;52.724;6.516;2023-07-31T08:18:23;100463.44;;;16.29;100.00
78671;BME280;68277;52.724;6.516;2023-07-31T08:20:49;100471.84;;;16.39;100.00
78671;BME280;68277;52.724;6.516;2023-07-31T08:23:19;100498.47;;;16.58;100.00
78671;BME280;68277;52.724;6.516;2023-07-31T08:25:50;100481.94;;;16.50;100.00
78671;BME280;68277;52.724;6.516;2023-07-31T08:28:16;100511.19;;;16.70;100.00
78671;BME280;68277;52.724;6.516;2023-07-31T08:30:42;100432.56;;;16.24;100.00
78671;BME280;68277;52.724;6.516;2023-07-31T08:33:07;100475.50;;;16.54;100.00
78671;BME280;68277;52.724;6.516;2023-07-31T08:35:33;100483.06;;;16.63;100.00
78671;BME280;68277;52.724;6.516;2023-07-31T08:37:59;100487.22;;;16.68;100.00
78671;BME280;68277;52.724;6.516;2023-07-31T08:40:25;100460.13;;;16.59;100.00
78671;BME280;68277;52.724;6.516;2023-07-31T08:42:55;100409.94;;;16.31;100.00
78671;BME280;68277;52.724;6.516;2023-07-31T08:45:22;100462.13;;;16.71;100.00
78671;BME280;68277;52.724;6.516;2023-07-31T08:47:53;100430.66;;;16.60;100.00
78671;BME280;68277;52.724;6.516;2023-07-31T08:50:20;100496.00;;;17.03;100.00
78671;BME280;68277;52.724;6.516;2023-07-31T08:52:47;100470.19;;;16.86;100.00
78671;BME280;68277;52.724;6.516;2023-07-31T08:55:15;100460.78;;;16.79;100.00
78671;BME280;68277;52.724;6.516;2023-07-31T08:57:41;100491.16;;;16.94;100.00
78671;BME280;68277;52.724;6.516;2023-07-31T09:00:11;100483.25;;;16.92;100.00
78671;BME280;68277;52.724;6.516;2023-07-31T09:05:16;100443.28;;;16.74;100.00
78671;BME280;68277;52.724;6.516;2023-07-31T09:07:43;100470.75;;;16.93;100.00
78671;BME280;68277;52.724;6.516;2023-07-31T09:10:11;100487.97;;;17.03;100.00
78671;BME280;68277;52.724;6.516;2023-07-31T09:12:37;100491.91;;;17.13;100.00
78671;BME280;68277;52.724;6.516;2023-07-31T09:15:04;100482.75;;;17.17;100.00
78671;BME280;68277;52.724;6.516;2023-07-31T09:17:34;100473.78;;;17.18;100.00
78671;BME280;68277;52.724;6.516;2023-07-31T09:20:19;100465.56;;;17.05;100.00
78671;BME280;68277;52.724;6.516;2023-07-31T09:22:46;100477.25;;;17.20;100.00
78671;BME280;68277;52.724;6.516;2023-07-31T09:25:19;100474.66;;;17.19;100.00
78671;BME280;68277;52.724;6.516;2023-07-31T09:30:22;100429.53;;;17.13;100.00
78671;BME280;68277;52.724;6.516;2023-07-31T09:32:50;100410.75;;;17.14;100.00
78671;BME280;68277;52.724;6.516;2023-07-31T09:35:27;100421.84;;;17.22;100.00
78671;BME280;68277;52.724;6.516;2023-07-31T09:37:57;100464.47;;;17.41;100.00
78671;BME280;68277;52.724;6.516;2023-07-31T09:40:33;100432.13;;;17.14;100.00
78671;BME280;68277;52.724;6.516;2023-07-31T09:43:01;100463.03;;;17.35;100.00
78671;BME280;68277;52.724;6.516;2023-07-31T09:45:34;100415.47;;;17.09;100.00
78671;BME280;68277;52.724;6.516;2023-07-31T09:50:38;100439.72;;;17.37;100.00
78671;BME280;68277;52.724;6.516;2023-07-31T09:53:05;100403.13;;;17.22;100.00
78671;BME280;68277;52.724;6.516;2023-07-31T09:55:36;100418.06;;;17.42;100.00
78671;BME280;68277;52.724;6.516;2023-07-31T09:58:07;100434.88;;;17.75;100.00
78671;BME280;68277;52.724;6.516;2023-07-31T10:00:33;100390.09;;;17.47;100.00
78671;BME280;68277;52.724;6.516;2023-07-31T10:03:00;100345.00;;;17.26;100.00
78671;BME280;68277;52.724;6.516;2023-07-31T10:05:45;100423.22;;;17.76;100.00
78671;BME280;68277;52.724;6.516;2023-07-31T10:08:21;100375.34;;;17.56;100.00
78671;BME280;68277;52.724;6.516;2023-07-31T10:10:48;100374.63;;;17.68;100.00
78671;BME280;68277;52.724;6.516;2023-07-31T10:13:15;100390.28;;;17.90;100.00
78671;BME280;68277;52.724;6.516;2023-07-31T10:15:42;100378.94;;;17.70;100.00
78671;BME280;68277;52.724;6.516;2023-07-31T10:18:09;100386.59;;;17.76;100.00
78671;BME280;68277;52.724;6.516;2023-07-31T10:20:35;100418.81;;;18.05;100.00
78671;BME280;68277;52.724;6.516;2023-07-31T10:23:01;100422.06;;;17.96;100.00
78671;BME280;68277;52.724;6.516;2023-07-31T10:25:27;100385.16;;;17.71;100.00
78671;BME280;68277;52.724;6.516;2023-07-31T10:27:54;100372.50;;;17.59;100.00
78671;BME280;68277;52.724;6.516;2023-07-31T10:30:26;100343.91;;;17.44;100.00
78671;BME280;68277;52.724;6.516;2023-07-31T10:32:53;100374.38;;;17.72;100.00
78671;BME280;68277;52.724;6.516;2023-07-31T10:35:19;100424.97;;;18.21;100.00
78671;BME280;68277;52.724;6.516;2023-07-31T10:37:49;100388.16;;;18.10;100.00
78671;BME280;68277;52.724;6.516;2023-07-31T10:40:19;100369.56;;;18.07;100.00
78671;BME280;68277;52.724;6.516;2023-07-31T10:42:53;100418.53;;;18.39;100.00
78671;BME280;68277;52.724;6.516;2023-07-31T10:45:32;100415.97;;;18.52;100.00
78671;BME280;68277;52.724;6.516;2023-07-31T10:48:05;100420.00;;;18.73;100.00
78671;BME280;68277;52.724;6.516;2023-07-31T10:50:33;100419.94;;;18.74;100.00
78671;BME280;68277;52.724;6.516;2023-07-31T10:53:02;100405.75;;;18.58;100.00
78671;BME280;68277;52.724;6.516;2023-07-31T10:55:41;100423.25;;;18.64;100.00
78671;BME280;68277;52.724;6.516;2023-07-31T10:58:13;100421.84;;;18.72;100.00
78671;BME280;68277;52.724;6.516;2023-07-31T11:00:45;100409.19;;;18.60;100.00
78671;BME280;68277;52.724;6.516;2023-07-31T11:03:19;100405.84;;;18.57;100.00
78671;BME280;68277;52.724;6.516;2023-07-31T11:06:03;100366.06;;;18.35;100.00
78671;BME280;68277;52.724;6.516;2023-07-31T11:08:30;100368.66;;;18.36;100.00
78671;BME280;68277;52.724;6.516;2023-07-31T11:13:32;100416.56;;;18.71;100.00
78671;BME280;68277;52.724;6.516;2023-07-31T11:15:58;100416.09;;;18.78;100.00
78671;BME280;68277;52.724;6.516;2023-07-31T11:18:26;100410.91;;;18.75;100.00
78671;BME280;68277;52.724;6.516;2023-07-31T11:20:52;100361.69;;;18.34;100.00
78671;BME280;68277;52.724;6.516;2023-07-31T11:23:25;100380.09;;;18.54;100.00
78671;BME280;68277;52.724;6.516;2023-07-31T11:25:50;100418.47;;;18.83;100.00
78671;BME280;68277;52.724;6.516;2023-07-31T11:28:17;100366.31;;;18.60;100.00
78671;BME280;68277;52.724;6.516;2023-07-31T11:30:44;100401.06;;;18.76;100.00
78671;BME280;68277;52.724;6.516;2023-07-31T11:33:12;100420.28;;;18.82;100.00
78671;BME280;68277;52.724;6.516;2023-07-31T11:35:45;100415.22;;;18.78;100.00
78671;BME280;68277;52.724;6.516;2023-07-31T11:38:12;100411.88;;;18.60;100.00
78671;BME280;68277;52.724;6.516;2023-07-31T11:40:42;100368.09;;;18.31;100.00
78671;BME280;68277;52.724;6.516;2023-07-31T11:43:08;100368.78;;;18.49;100.00
78671;BME280;68277;52.724;6.516;2023-07-31T11:45:33;100398.25;;;18.63;100.00
78671;BME280;68277;52.724;6.516;2023-07-31T11:48:00;100324.06;;;18.21;100.00
78671;BME280;68277;52.724;6.516;2023-07-31T11:50:26;100360.22;;;18.42;100.00
78671;BME280;68277;52.724;6.516;2023-07-31T11:53:04;100370.50;;;18.64;100.00
78671;BME280;68277;52.724;6.516;2023-07-31T11:55:32;100329.25;;;18.67;100.00
78671;BME280;68277;52.724;6.516;2023-07-31T11:57:59;100398.91;;;19.09;100.00
78671;BME280;68277;52.724;6.516;2023-07-31T12:00:25;100372.03;;;18.82;100.00
78671;BME280;68277;52.724;6.516;2023-07-31T12:02:52;100377.09;;;18.59;100.00
78671;BME280;68277;52.724;6.516;2023-07-31T12:05:18;100369.28;;;18.56;100.00
78671;BME280;68277;52.724;6.516;2023-07-31T12:07:54;100396.28;;;18.67;100.00
78671;BME280;68277;52.724;6.516;2023-07-31T12:15:34;100398.00;;;19.37;100.00
78671;BME280;68277;52.724;6.516;2023-07-31T12:18:06;100351.56;;;19.08;100.00
78671;BME280;68277;52.724;6.516;2023-07-31T12:20:32;100398.56;;;19.28;100.00
78671;BME280;68277;52.724;6.516;2023-07-31T12:22:59;100381.31;;;19.05;100.00
78671;BME280;68277;52.724;6.516;2023-07-31T12:25:32;100370.78;;;18.88;100.00
78671;BME280;68277;52.724;6.516;2023-07-31T12:28:03;100357.47;;;18.86;100.00
78671;BME280;68277;52.724;6.516;2023-07-31T12:30:33;100386.38;;;18.95;100.00
78671;BME280;68277;52.724;6.516;2023-07-31T12:33:18;100359.31;;;18.86;100.00
78671;BME280;68277;52.724;6.516;2023-07-31T12:35:46;100413.63;;;19.44;100.00
78671;BME280;68277;52.724;6.516;2023-07-31T12:38:13;100411.63;;;19.87;100.00
78671;BME280;68277;52.724;6.516;2023-07-31T12:40:40;100350.22;;;20.33;100.00
78671;BME280;68277;52.724;6.516;2023-07-31T12:43:07;100393.03;;;20.86;98.05
78671;BME280;68277;52.724;6.516;2023-07-31T12:45:34;100381.31;;;20.75;97.90
78671;BME280;68277;52.724;6.516;2023-07-31T12:48:00;100366.25;;;20.47;95.11
78671;BME280;68277;52.724;6.516;2023-07-31T12:50:26;100395.63;;;20.50;98.27
78671;BME280;68277;52.724;6.516;2023-07-31T12:52:53;100374.66;;;20.42;99.38
78671;BME280;68277;52.724;6.516;2023-07-31T12:55:20;100397.13;;;20.29;97.33
78671;BME280;68277;52.724;6.516;2023-07-31T12:57:46;100344.00;;;19.68;99.56
78671;BME280;68277;52.724;6.516;2023-07-31T13:00:12;100390.41;;;19.70;100.00
78671;BME280;68277;52.724;6.516;2023-07-31T13:02:38;100398.09;;;19.62;100.00
78671;BME280;68277;52.724;6.516;2023-07-31T13:05:03;100343.47;;;19.22;100.00